Time;durP1;ratioP1;P1;durP2;ratioP2;P2;SDS_P1;SDS_P2;PMS_P1;PMS_P2;Temp;Humidity;BMP_temperature;BMP_pressure;BME280_temperature;BME280_humidity;BME280_pressure;Samples;Min_cycle;Max_cycle;Signal;HPM_P1;HPM_P2
2021/11/03 00:01:23;;;;;;;;;12.50;10.75;;;;;11.98;75.09;99054.31;5075237;28;47292;-78
2021/11/03 00:10:44;;;;;;;;;6.00;6.00;;;;;11.94;75.07;99052.94;5082631;27;45625;-77
2021/11/03 00:13:11;;;;;;;;;7.25;6.25;;;;;11.88;75.13;99040.44;5082358;28;47789;-78
2021/11/03 00:15:37;;;;;;;;;7.25;5.50;;;;;11.89;74.89;99042.09;5082317;28;46343;-77
2021/11/03 00:18:02;;;;;;;;;6.50;6.00;;;;;11.94;75.08;99059.03;5079701;28;45463;-77
2021/11/03 00:23:49;;;;;;;;;7.50;7.25;;;;;11.96;75.39;99049.19;5076056;28;45647;-77
2021/11/03 00:26:15;;;;;;;;;7.25;7.25;;;;;11.96;75.07;99043.13;5075609;28;46121;-78
2021/11/03 00:28:40;;;;;;;;;5.25;5.25;;;;;11.94;75.35;99032.78;5057228;28;45589;-77
2021/11/03 00:31:06;;;;;;;;;8.50;7.50;;;;;11.99;75.59;99037.53;5076032;28;45675;-78
2021/11/03 00:33:32;;;;;;;;;2.00;2.00;;;;;11.98;75.36;99031.50;5075456;28;46482;-77
2021/11/03 00:39:22;;;;;;;;;7.25;6.50;;;;;11.96;75.40;99024.75;5075276;28;45689;-79
2021/11/03 00:41:50;;;;;;;;;6.25;4.50;;;;;11.96;75.11;99022.13;5075592;28;45632;-77
2021/11/03 00:44:16;;;;;;;;;7.50;6.50;;;;;11.88;75.21;99017.66;5075463;28;46689;-77
2021/11/03 00:46:41;;;;;;;;;12.25;9.75;;;;;11.86;75.29;99018.81;5075536;28;45611;-77
2021/11/03 00:49:07;;;;;;;;;7.75;7.00;;;;;11.88;75.25;99022.91;5075504;28;45571;-77
2021/11/03 00:51:32;;;;;;;;;8.25;7.75;;;;;11.84;75.18;99011.06;5075791;28;45581;-76
2021/11/03 00:53:58;;;;;;;;;8.00;8.00;;;;;11.75;75.32;98993.66;5075679;28;46407;-77
2021/11/03 00:56:24;;;;;;;;;10.00;8.50;;;;;11.86;75.70;99011.75;5076108;28;45921;-77
2021/11/03 00:58:49;;;;;;;;;8.25;8.00;;;;;11.87;75.38;99013.41;5075536;28;45619;-77
2021/11/03 01:01:14;;;;;;;;;8.75;7.25;;;;;11.88;75.33;99017.66;5075738;28;45598;-77
2021/11/03 01:03:40;;;;;;;;;9.00;8.00;;;;;11.87;75.38;99009.94;5074981;28;46512;-76
2021/11/03 01:09:27;;;;;;;;;7.75;7.75;;;;;11.77;75.72;98997.75;5074844;28;45700;-78
2021/11/03 01:11:53;;;;;;;;;7.75;7.75;;;;;11.82;75.59;99007.81;5075075;28;45561;-78
2021/11/03 01:14:19;;;;;;;;;8.00;8.00;;;;;11.82;75.38;99001.72;5075645;28;45555;-78
2021/11/03 01:16:45;;;;;;;;;8.50;8.00;;;;;11.84;75.59;99007.63;5075149;28;45997;-77
2021/11/03 01:19:10;;;;;;;;;8.75;7.00;;;;;11.84;75.71;99002.38;5075343;28;45582;-78
2021/11/03 01:24:57;;;;;;;;;8.00;6.75;;;;;11.82;75.62;99015.69;5074511;28;45632;-77
2021/11/03 01:27:22;;;;;;;;;8.50;6.00;;;;;11.82;75.81;99012.22;5074943;28;45747;-77
2021/11/03 01:29:48;;;;;;;;;7.00;4.75;;;;;11.84;75.76;99008.44;5073349;28;46054;-78
2021/11/03 01:32:13;;;;;;;;;6.75;6.00;;;;;11.83;75.86;99024.34;5074870;28;45577;-76
2021/11/03 01:34:38;;;;;;;;;6.50;4.75;;;;;11.78;75.70;99007.28;5075130;28;45623;-77
2021/11/03 01:37:04;;;;;;;;;2.25;2.25;;;;;11.71;75.41;99005.41;5075372;28;46052;-77
2021/11/03 01:39:29;;;;;;;;;2.50;2.50;;;;;11.70;75.22;99012.47;5074994;28;45667;-77
2021/11/03 01:41:55;;;;;;;;;4.50;3.00;;;;;11.68;75.50;99013.56;5075302;28;45806;-77
2021/11/03 01:44:20;;;;;;;;;4.00;3.50;;;;;11.53;75.69;98988.91;5076696;28;45495;-77
2021/11/03 01:47:16;;;;;;;;;4.75;4.75;;;;;11.71;75.19;99024.56;5080004;28;46652;-77
2021/11/03 01:49:41;;;;;;;;;3.00;3.00;;;;;11.61;74.88;99029.09;5081264;28;45788;-77
2021/11/03 01:52:11;;;;;;;;;3.00;2.00;;;;;11.61;75.15;99033.53;5081492;28;45553;-77
2021/11/03 01:54:50;;;;;;;;;6.00;3.75;;;;;11.60;75.35;99027.50;5075944;28;47266;-77
2021/11/03 01:57:20;;;;;;;;;8.25;6.00;;;;;11.57;75.16;99027.78;5075209;28;46026;-77
2021/11/03 01:59:49;;;;;;;;;7.75;4.50;;;;;11.25;75.40;98973.31;5073439;28;45762;-77
2021/11/03 02:02:19;;;;;;;;;4.75;3.75;;;;;11.53;75.29;99028.25;5074109;28;45538;-77
2021/11/03 02:04:45;;;;;;;;;3.25;3.25;;;;;11.42;74.91;99012.75;5075113;28;45487;-77
2021/11/03 02:07:24;;;;;;;;;7.00;6.00;;;;;11.38;75.41;99027.16;5074784;28;46099;-77
2021/11/03 02:09:51;;;;;;;;;5.00;3.00;;;;;11.41;75.45;99027.66;5073576;28;45605;-77
2021/11/03 02:12:26;;;;;;;;;2.50;2.00;;;;;11.35;74.70;99023.84;5074388;28;45534;-77
2021/11/03 02:14:53;;;;;;;;;3.00;2.75;;;;;11.28;74.80;99014.94;5074945;28;45468;-77
2021/11/03 02:17:20;;;;;;;;;4.50;4.00;;;;;11.24;75.32;99020.66;5074814;28;45990;-77
2021/11/03 02:19:47;;;;;;;;;6.00;6.00;;;;;11.18;75.63;99016.84;5074469;28;45742;-77
2021/11/03 02:22:39;;;;;;;;;7.50;7.00;;;;;11.19;75.92;99028.16;5075187;28;45811;-77
2021/11/03 02:25:09;;;;;;;;;6.00;5.50;;;;;11.12;76.13;99022.69;5045875;28;45663;-77
2021/11/03 02:27:38;;;;;;;;;7.75;7.00;;;;;11.09;76.27;99024.78;5077924;28;46195;-77
2021/11/03 02:30:06;;;;;;;;;7.25;7.25;;;;;11.01;76.35;99011.63;5077941;28;45806;-77
2021/11/03 02:32:32;;;;;;;;;7.00;6.00;;;;;10.96;76.57;99016.50;5077626;28;45534;-76
2021/11/03 02:34:59;;;;;;;;;7.75;5.00;;;;;10.83;76.69;99006.41;5077978;28;46702;-77
2021/11/03 02:37:27;;;;;;;;;7.00;6.75;;;;;10.85;76.96;99020.19;5077665;28;46080;-76
2021/11/03 02:40:16;;;;;;;;;7.75;7.00;;;;;10.81;77.12;99009.16;5059319;28;45739;-77
2021/11/03 02:42:47;;;;;;;;;7.00;6.75;;;;;10.79;77.06;99026.00;5045299;28;46064;-77
2021/11/03 02:45:21;;;;;;;;;7.00;7.00;;;;;10.70;77.31;99013.78;5077167;28;46535;-77
2021/11/03 02:47:47;;;;;;;;;7.00;6.00;;;;;10.59;77.11;99004.34;5077692;28;46134;-78
2021/11/03 02:50:13;;;;;;;;;7.75;6.25;;;;;10.65;77.42;99034.38;5074594;28;45668;-77
2021/11/03 02:52:39;;;;;;;;;8.50;7.75;;;;;10.61;77.71;99023.38;5077765;28;45663;-76
2021/11/03 02:55:07;;;;;;;;;6.75;6.50;;;;;10.59;77.73;99033.16;5077139;28;47301;-76
2021/11/03 02:57:33;;;;;;;;;6.75;6.00;;;;;10.55;77.69;99028.38;5077934;28;46613;-76
2021/11/03 02:59:58;;;;;;;;;6.75;6.75;;;;;10.48;77.52;99028.97;5078609;28;45554;-77
2021/11/03 03:02:24;;;;;;;;;7.00;7.00;;;;;10.49;77.55;99027.16;5077479;28;45699;-77
2021/11/03 03:04:54;;;;;;;;;6.00;6.00;;;;;10.52;77.83;99032.13;5076450;28;47597;-76
2021/11/03 03:10:41;;;;;;;;;8.25;6.00;;;;;10.52;77.64;99032.13;5075455;28;45886;-78
2021/11/03 03:13:06;;;;;;;;;7.25;6.25;;;;;10.55;77.60;99034.44;5077161;28;45560;-77
2021/11/03 03:15:31;;;;;;;;;7.00;6.00;;;;;10.50;78.00;99027.03;5077485;28;47167;-77
2021/11/03 03:18:00;;;;;;;;;11.00;8.25;;;;;10.53;77.88;99045.03;5075674;28;47214;-77
2021/11/03 03:20:26;;;;;;;;;8.25;8.00;;;;;10.49;77.83;99037.63;5064717;28;45789;-76
2021/11/03 03:22:52;;;;;;;;;8.00;6.50;;;;;10.45;78.13;99033.66;5082913;28;45534;-77
2021/11/03 03:25:17;;;;;;;;;6.75;6.75;;;;;10.38;77.93;99027.38;5083176;28;47250;-77
2021/11/03 03:27:42;;;;;;;;;7.50;7.50;;;;;10.40;78.32;99036.75;5062601;28;46303;-77
2021/11/03 03:30:08;;;;;;;;;9.50;8.00;;;;;10.38;78.25;99054.38;5077400;28;45941;-78
2021/11/03 03:32:34;;;;;;;;;7.50;7.50;;;;;10.29;78.42;99042.16;5075057;28;45868;-75
2021/11/03 03:34:59;;;;;;;;;0.00;0.00;;;;;10.30;78.25;99049.06;5076301;28;47366;-77
2021/11/03 03:40:46;;;;;;;;;6.00;6.00;;;;;10.27;78.96;99062.41;5076598;28;45681;-76
2021/11/03 03:43:11;;;;;;;;;7.00;5.50;;;;;10.29;78.70;99052.63;5058124;28;45659;-78
2021/11/03 03:45:37;;;;;;;;;7.25;6.50;;;;;10.30;78.55;99074.41;5076356;28;47061;-76
2021/11/03 03:48:04;;;;;;;;;4.75;4.75;;;;;10.25;78.81;99061.75;5076667;28;46075;-77
2021/11/03 03:50:30;;;;;;;;;5.00;4.25;;;;;10.19;78.51;99062.34;5076183;28;45739;-78
2021/11/03 03:52:55;;;;;;;;;6.25;5.50;;;;;10.22;78.96;99072.50;5076184;28;45930;-77
2021/11/03 03:55:20;;;;;;;;;6.00;5.50;;;;;10.23;79.05;99076.78;5075980;28;46503;-77
2021/11/03 03:57:46;;;;;;;;;6.00;4.25;;;;;10.18;78.49;99062.47;5074778;28;47209;-77
2021/11/03 04:00:18;;;;;;;;;5.50;3.75;;;;;10.26;78.71;99075.63;5076468;28;45505;-77
2021/11/03 04:02:45;;;;;;;;;6.00;4.25;;;;;10.23;78.96;99070.72;5075964;28;45834;-77
2021/11/03 04:05:11;;;;;;;;;6.00;5.00;;;;;10.25;78.77;99079.25;5076553;28;46411;-77
2021/11/03 04:10:59;;;;;;;;;3.00;3.00;;;;;10.28;78.77;99081.56;5074871;28;45665;-78
2021/11/03 04:13:26;;;;;;;;;4.00;3.00;;;;;10.27;78.58;99080.75;5076518;28;45811;-77
2021/11/03 04:15:52;;;;;;;;;7.50;5.50;;;;;10.28;78.83;99079.78;5074371;28;47355;-77
2021/11/03 04:18:17;;;;;;;;;6.00;6.00;;;;;10.32;78.57;99083.75;5076347;28;45640;-77
2021/11/03 04:20:43;;;;;;;;;4.25;3.00;;;;;10.15;78.44;99055.69;5076155;28;45718;-77
2021/11/03 04:23:08;;;;;;;;;4.25;3.25;;;;;10.31;78.45;99089.16;5076995;28;45617;-77
2021/11/03 04:25:34;;;;;;;;;4.00;3.00;;;;;10.32;78.53;99096.00;5075852;28;46475;-77
2021/11/03 04:28:00;;;;;;;;;5.75;3.75;;;;;10.32;78.73;99088.97;5075899;28;45617;-77
2021/11/03 04:30:26;;;;;;;;;5.75;4.25;;;;;10.28;78.64;99089.41;5076345;28;45817;-76
2021/11/03 04:32:52;;;;;;;;;5.50;5.00;;;;;10.32;78.71;99099.44;5076053;28;45824;-75
2021/11/03 04:35:18;;;;;;;;;5.75;5.00;;;;;10.30;78.69;99103.19;5076014;28;45730;-77
2021/11/03 04:41:04;;;;;;;;;5.50;5.50;;;;;10.32;78.76;99103.84;5075363;28;45576;-75
2021/11/03 04:43:30;;;;;;;;;6.75;6.25;;;;;10.32;78.88;99112.53;5075863;28;45586;-77
2021/11/03 04:45:55;;;;;;;;;11.00;8.50;;;;;10.29;79.09;99107.59;5074698;28;46841;-77
2021/11/03 04:48:20;;;;;;;;;7.00;7.00;;;;;10.29;79.08;99112.00;5075615;28;45713;-76
2021/11/03 04:50:46;;;;;;;;;11.00;8.00;;;;;10.23;78.90;99116.03;5075333;28;46158;-77
2021/11/03 04:56:33;;;;;;;;;9.75;9.25;;;;;10.14;78.85;99103.78;5081999;28;45456;-76
2021/11/03 04:59:04;;;;;;;;;9.75;8.50;;;;;10.09;78.78;99100.78;5082307;28;47107;-76
2021/11/03 05:01:30;;;;;;;;;9.25;8.75;;;;;10.16;78.90;99114.09;5077304;28;45783;-77
2021/11/03 05:03:56;;;;;;;;;11.00;9.75;;;;;10.13;78.97;99117.00;5075173;28;45629;-78
2021/11/03 05:06:25;;;;;;;;;7.75;7.00;;;;;10.09;78.78;99119.88;5075425;28;46647;-77
2021/11/03 05:08:53;;;;;;;;;8.50;8.50;;;;;10.08;78.97;99120.88;5075316;28;45560;-78
2021/11/03 05:11:19;;;;;;;;;10.25;9.25;;;;;10.06;79.14;99112.34;5056336;28;45653;-77
2021/11/03 05:13:44;;;;;;;;;11.25;11.00;;;;;10.06;79.25;99114.13;5056831;28;45698;-77
2021/11/03 05:16:16;;;;;;;;;8.75;8.75;;;;;10.01;79.36;99124.19;5075521;28;46384;-76
2021/11/03 05:18:42;;;;;;;;;8.25;8.00;;;;;10.02;79.35;99126.66;5074420;28;46462;-77
2021/11/03 05:21:07;;;;;;;;;10.75;9.25;;;;;9.97;79.45;99128.88;5075179;28;45507;-76
2021/11/03 05:23:32;;;;;;;;;10.00;9.25;;;;;9.96;79.56;99131.63;5075166;28;46010;-77
2021/11/03 05:25:58;;;;;;;;;8.25;8.00;;;;;9.93;79.55;99127.50;5074541;28;46512;-77
2021/11/03 05:28:24;;;;;;;;;12.00;10.50;;;;;9.82;79.41;99108.56;5074909;28;46687;-77
2021/11/03 05:30:49;;;;;;;;;11.75;11.00;;;;;9.93;79.68;99124.88;5075093;28;45826;-77
2021/11/03 05:33:15;;;;;;;;;14.75;12.00;;;;;9.89;79.55;99128.75;5075148;28;45765;-77
2021/11/03 05:35:42;;;;;;;;;14.25;13.25;;;;;9.91;79.62;99126.00;5073700;28;46532;-75
2021/11/03 05:41:29;;;;;;;;;10.00;8.00;;;;;9.98;79.63;99127.94;5074588;28;45775;-77
2021/11/03 05:43:55;;;;;;;;;17.00;14.00;;;;;10.01;79.39;99132.88;5074963;28;45818;-77
2021/11/03 05:46:29;;;;;;;;;14.00;12.00;;;;;10.00;79.54;99127.75;5074664;28;46564;-77
2021/11/03 05:48:58;;;;;;;;;14.50;13.75;;;;;10.00;79.15;99133.81;5074270;28;47100;-76
2021/11/03 05:51:24;;;;;;;;;12.75;10.25;;;;;9.98;79.21;99143.63;5057069;28;45940;-77
2021/11/03 05:53:49;;;;;;;;;15.00;13.50;;;;;9.96;79.42;99142.94;5075027;28;45451;-77
2021/11/03 05:56:15;;;;;;;;;16.00;12.00;;;;;9.98;79.65;99141.00;5074277;28;47180;-77
2021/11/03 05:58:41;;;;;;;;;17.50;15.25;;;;;9.99;79.63;99136.56;5076221;28;45998;-77
2021/11/03 06:01:06;;;;;;;;;13.75;12.50;;;;;9.89;79.66;99125.31;5077204;28;45564;-77
2021/11/03 06:03:32;;;;;;;;;12.00;10.00;;;;;9.89;79.59;99138.38;5078110;28;45704;-77
2021/11/03 06:05:58;;;;;;;;;19.00;16.50;;;;;9.84;80.14;99146.66;5078440;28;45707;-76
2021/11/03 06:11:47;;;;;;;;;15.00;12.25;;;;;9.76;80.30;99143.94;5076714;27;45803;-78
2021/11/03 06:14:12;;;;;;;;;20.00;16.50;;;;;9.77;80.25;99153.41;5078234;28;45814;-77
2021/11/03 06:16:38;;;;;;;;;15.75;13.75;;;;;9.77;80.63;99155.22;5077504;28;46456;-78
2021/11/03 06:19:04;;;;;;;;;13.75;12.25;;;;;9.76;80.59;99154.41;5078465;28;45695;-78
2021/11/03 06:21:32;;;;;;;;;19.50;14.75;;;;;9.67;80.30;99142.97;5075586;28;45625;-77
2021/11/03 06:27:19;;;;;;;;;18.25;16.00;;;;;9.69;80.56;99145.44;5083764;28;46124;-78
2021/11/03 06:29:45;;;;;;;;;21.25;16.00;;;;;9.79;80.76;99155.91;5082594;28;45663;-78
2021/11/03 06:32:10;;;;;;;;;21.00;16.25;;;;;9.78;80.65;99162.09;5083893;28;45771;-78
2021/11/03 06:34:36;;;;;;;;;20.50;18.25;;;;;9.72;80.91;99157.44;5078423;28;45538;-76
2021/11/03 06:37:02;;;;;;;;;21.50;21.25;;;;;9.77;81.06;99173.53;5077880;28;46798;-78
2021/11/03 06:39:30;;;;;;;;;15.50;12.25;;;;;9.70;81.22;99157.56;5077594;28;45543;-78
2021/11/03 06:41:56;;;;;;;;;17.75;16.75;;;;;9.78;80.92;99168.13;5077745;28;45799;-76
2021/11/03 06:44:21;;;;;;;;;20.25;18.00;;;;;9.80;81.13;99174.06;5077924;28;45557;-76
2021/11/03 06:46:47;;;;;;;;;20.75;19.75;;;;;9.79;81.20;99177.66;5077236;28;46175;-77
2021/11/03 06:49:12;;;;;;;;;16.75;13.50;;;;;9.77;81.20;99179.56;5077633;28;46019;-78
2021/11/03 06:51:38;;;;;;;;;22.75;18.75;;;;;9.84;80.74;99185.91;5075960;28;45582;-78
2021/11/03 06:57:25;;;;;;;;;18.25;16.00;;;;;9.81;80.29;99196.66;5077088;28;46046;-78
2021/11/03 06:59:51;;;;;;;;;15.50;15.00;;;;;9.75;80.16;99191.13;5076796;28;46269;-77
2021/11/03 07:02:17;;;;;;;;;17.00;16.00;;;;;9.68;80.23;99186.47;5077939;28;45703;-78
2021/11/03 07:04:43;;;;;;;;;20.50;19.50;;;;;9.74;80.64;99203.38;5076944;28;45875;-77
2021/11/03 07:07:09;;;;;;;;;20.75;17.00;;;;;9.68;80.63;99225.69;5077233;28;46222;-77
2021/11/03 07:09:36;;;;;;;;;19.75;19.00;;;;;9.55;80.59;99203.41;5076734;28;45675;-77
2021/11/03 07:12:02;;;;;;;;;20.75;19.50;;;;;9.62;80.62;99222.78;5076833;28;45623;-77
2021/11/03 07:14:28;;;;;;;;;28.00;20.00;;;;;9.59;80.42;99221.28;5077712;28;45441;-75
2021/11/03 07:16:53;;;;;;;;;21.50;17.75;;;;;9.60;80.54;99237.81;5077082;28;45584;-77
2021/11/03 07:19:19;;;;;;;;;21.75;18.50;;;;;9.50;80.78;99229.94;5077422;28;45678;-77
2021/11/03 07:21:44;;;;;;;;;15.25;14.25;;;;;9.52;80.92;99240.25;5076869;28;45700;-77
2021/11/03 07:27:31;;;;;;;;;18.00;16.50;;;;;9.56;81.18;99249.47;5076848;28;45534;-76
2021/11/03 07:29:57;;;;;;;;;22.00;16.50;;;;;9.56;80.63;99259.94;5075261;28;45637;-77
2021/11/03 07:32:22;;;;;;;;;24.25;18.25;;;;;9.58;80.62;99252.78;5076872;28;45538;-78
2021/11/03 07:34:48;;;;;;;;;18.75;16.50;;;;;9.48;80.57;99247.56;5076525;28;45502;-77
2021/11/03 07:37:14;;;;;;;;;22.00;19.50;;;;;9.56;80.39;99263.38;5080668;28;45549;-77
2021/11/03 07:39:40;;;;;;;;;16.50;15.00;;;;;9.46;80.42;99267.75;5082011;28;46174;-78
2021/11/03 07:42:06;;;;;;;;;22.75;18.75;;;;;9.36;80.44;99256.47;5083804;28;45520;-77
2021/11/03 07:44:31;;;;;;;;;13.75;12.00;;;;;9.40;80.37;99270.91;5082309;28;45372;-76
2021/11/03 07:46:56;;;;;;;;;18.75;14.75;;;;;9.42;80.79;99276.03;5077561;28;46719;-78
2021/11/03 07:49:22;;;;;;;;;21.25;15.00;;;;;9.37;80.34;99265.97;5077126;28;46001;-78
2021/11/03 07:51:47;;;;;;;;;22.00;16.00;;;;;9.40;80.33;99283.16;5076695;28;46108;-77
2021/11/03 07:57:34;;;;;;;;;16.00;15.25;;;;;9.17;80.69;99259.06;5083255;28;45587;-77
2021/11/03 08:00:00;;;;;;;;;19.50;15.50;;;;;9.29;80.36;99276.25;5082882;28;46245;-78
2021/11/03 08:02:25;;;;;;;;;17.25;15.25;;;;;9.41;80.25;99303.94;5083166;28;45655;-77
2021/11/03 08:04:50;;;;;;;;;11.75;10.00;;;;;9.42;80.02;99305.59;5078945;28;45685;-78
2021/11/03 08:07:16;;;;;;;;;15.00;13.25;;;;;9.38;79.92;99300.78;5077258;28;45618;-77
2021/11/03 08:13:04;;;;;;;;;16.00;15.75;;;;;9.28;79.68;99301.56;5073368;28;46220;-78
2021/11/03 08:15:30;;;;;;;;;15.75;13.50;;;;;9.35;79.85;99321.94;5077095;28;45701;-76
2021/11/03 08:17:57;;;;;;;;;17.00;16.25;;;;;9.39;80.25;99325.97;5076843;28;45686;-77
2021/11/03 08:20:25;;;;;;;;;19.50;15.00;;;;;9.38;80.14;99319.06;5075628;28;46137;-78
2021/11/03 08:22:55;;;;;;;;;15.50;13.25;;;;;9.45;80.16;99322.78;5076681;28;45617;-78
2021/11/03 08:25:22;;;;;;;;;15.25;13.00;;;;;9.44;80.17;99314.16;5075928;28;45918;-78
2021/11/03 08:27:48;;;;;;;;;14.00;13.00;;;;;9.53;79.93;99328.19;5076827;28;46420;-77
2021/11/03 08:30:15;;;;;;;;;16.50;14.50;;;;;9.53;79.58;99329.03;5076978;28;45931;-76
2021/11/03 08:32:46;;;;;;;;;20.00;14.50;;;;;9.48;79.62;99338.22;5075454;28;45987;-78
2021/11/03 08:35:14;;;;;;;;;15.75;14.50;;;;;9.49;79.54;99338.09;5075202;28;45604;-79
2021/11/03 08:37:41;;;;;;;;;17.50;15.25;;;;;9.51;79.64;99358.84;5074371;28;46818;-76
2021/11/03 08:40:11;;;;;;;;;20.50;15.75;;;;;9.56;79.91;99354.06;5075329;28;46213;-77
2021/11/03 08:42:38;;;;;;;;;20.50;17.50;;;;;9.46;79.63;99345.34;5074972;28;45848;-73
2021/11/03 08:45:05;;;;;;;;;19.75;17.75;;;;;9.54;79.29;99364.66;5075491;28;45545;-77
2021/11/03 08:47:32;;;;;;;;;22.50;18.50;;;;;9.49;78.88;99364.25;5075759;28;46728;-78
2021/11/03 08:49:57;;;;;;;;;13.25;11.75;;;;;9.49;79.48;99355.56;5077363;28;46331;-78
2021/11/03 08:52:23;;;;;;;;;21.25;18.25;;;;;9.44;79.15;99349.91;5077111;28;45430;-79
2021/11/03 08:58:12;;;;;;;;;19.00;16.75;;;;;9.53;79.09;99359.56;5075534;28;45648;-78
2021/11/03 09:00:39;;;;;;;;;20.00;16.50;;;;;9.60;79.06;99365.91;5055628;28;45642;-79
2021/11/03 09:03:05;;;;;;;;;19.25;16.25;;;;;9.64;78.91;99367.31;5077064;28;45905;-78
2021/11/03 09:05:31;;;;;;;;;19.50;15.50;;;;;9.65;78.88;99355.88;5076415;28;45729;-76
2021/11/03 09:07:57;;;;;;;;;19.00;16.75;;;;;9.68;78.58;99374.75;5057798;28;47520;-77
2021/11/03 09:10:25;;;;;;;;;20.75;19.00;;;;;9.59;78.60;99364.25;5075311;28;47129;-73
2021/11/03 09:12:51;;;;;;;;;23.00;18.25;;;;;9.61;78.61;99371.00;5075060;28;45895;-73
2021/11/03 09:15:19;;;;;;;;;19.25;16.75;;;;;9.74;78.84;99383.00;5075648;28;45495;-77
2021/11/03 09:17:46;;;;;;;;;19.25;17.25;;;;;9.81;78.26;99379.75;5074708;28;45629;-74
2021/11/03 09:20:13;;;;;;;;;19.00;19.00;;;;;9.84;78.36;99381.25;5074735;28;47463;-76
2021/11/03 09:22:40;;;;;;;;;22.00;18.00;;;;;9.86;78.16;99377.53;5074555;28;45883;-73
2021/11/03 09:28:31;;;;;;;;;20.75;17.50;;;;;9.86;78.39;99392.41;5078849;28;45480;-75
2021/11/03 09:30:58;;;;;;;;;20.00;17.00;;;;;9.69;78.40;99375.56;5079492;28;47114;-74
2021/11/03 09:33:25;;;;;;;;;21.50;18.00;;;;;9.83;78.47;99398.72;5078533;28;45577;-73
2021/11/03 09:35:52;;;;;;;;;22.00;19.50;;;;;9.84;78.35;99410.00;5077263;28;45459;-73
2021/11/03 09:38:23;;;;;;;;;19.75;16.25;;;;;9.89;78.16;99408.66;5074587;28;46546;-74
2021/11/03 09:40:48;;;;;;;;;20.50;17.25;;;;;9.87;77.88;99407.97;5074779;28;46242;-73
2021/11/03 09:43:38;;;;;;;;;22.25;19.75;;;;;9.87;77.91;99415.00;5065752;28;45602;-75
2021/11/03 09:46:36;;;;;;;;;21.50;18.00;;;;;9.88;77.57;99417.47;5074870;28;45699;-74
2021/11/03 09:49:17;;;;;;;;;21.25;16.00;;;;;9.94;77.81;99422.16;5073549;28;46212;-79
2021/11/03 09:51:52;;;;;;;;;17.50;16.25;;;;;9.92;77.71;99421.50;5056139;28;46160;-78
2021/11/03 09:54:23;;;;;;;;;14.50;11.00;;;;;10.04;77.63;99424.81;5074362;28;45825;-77
2021/11/03 09:57:40;;;;;;;;;22.50;19.50;;;;;10.09;77.05;99433.88;5074230;28;45865;-75
2021/11/03 10:00:27;;;;;;;;;21.50;20.00;;;;;10.09;77.23;99406.94;4991861;28;45571;-76
2021/11/03 10:03:28;;;;;;;;;24.00;21.00;;;;;10.23;77.12;99416.19;5073578;28;47065;-73
2021/11/03 10:06:18;;;;;;;;;21.50;17.00;;;;;10.34;77.06;99426.53;5045434;28;45762;-75
2021/11/03 10:12:17;;;;;;;;;21.50;20.00;;;;;10.38;76.72;99426.13;5073386;28;46027;-78
2021/11/03 10:14:44;;;;;;;;;22.75;19.75;;;;;10.40;76.69;99434.69;5073649;28;46497;-76
2021/11/03 10:17:21;;;;;;;;;20.75;17.25;;;;;10.41;76.56;99432.88;5073892;28;45836;-78
2021/11/03 10:19:46;;;;;;;;;19.00;17.25;;;;;10.42;76.41;99437.97;5074016;28;45866;-76
2021/11/03 10:22:36;;;;;;;;;16.75;15.00;;;;;10.33;75.95;99417.84;5073586;28;47341;-73
2021/11/03 10:28:40;;;;;;;;;14.75;14.75;;;;;10.42;76.06;99432.72;5073761;28;45843;-75
2021/11/03 10:31:19;;;;;;;;;18.00;17.25;;;;;10.46;75.97;99441.16;5073497;28;45737;-77
2021/11/03 10:33:46;;;;;;;;;22.00;19.25;;;;;10.49;76.01;99441.69;5073681;28;45561;-75
2021/11/03 10:36:14;;;;;;;;;18.25;17.75;;;;;10.54;75.76;99443.91;5073801;28;46098;-75
2021/11/03 10:38:47;;;;;;;;;19.00;17.75;;;;;10.47;75.72;99425.28;5073711;28;45807;-73
2021/11/03 10:41:28;;;;;;;;;17.50;16.25;;;;;10.57;75.59;99437.56;5073540;28;45662;-79
2021/11/03 10:44:02;;;;;;;;;15.75;14.25;;;;;10.61;75.71;99442.41;5074225;28;45550;-73
2021/11/03 10:46:38;;;;;;;;;16.50;14.75;;;;;10.66;75.34;99437.56;5076771;28;46412;-77
2021/11/03 10:49:09;;;;;;;;;19.75;15.00;;;;;10.71;75.33;99442.38;5077194;28;45565;-74
2021/11/03 10:51:39;;;;;;;;;17.50;14.75;;;;;10.76;75.38;99453.28;5058936;28;45596;-77
2021/11/03 10:54:35;;;;;;;;;18.25;17.00;;;;;10.76;74.74;99450.66;5076558;28;46634;-75
2021/11/03 10:57:16;;;;;;;;;18.25;14.75;;;;;10.70;75.23;99446.81;5075421;28;47284;-75
2021/11/03 10:59:51;;;;;;;;;20.50;17.75;;;;;10.75;75.34;99460.31;5077183;28;45589;-79
2021/11/03 11:02:26;;;;;;;;;19.25;18.50;;;;;10.80;74.93;99437.13;5080165;28;45534;-79
2021/11/03 11:04:53;;;;;;;;;19.50;17.00;;;;;10.91;74.96;99449.25;5063901;28;47627;-78
2021/11/03 11:07:39;;;;;;;;;13.50;12.75;;;;;10.98;74.81;99441.69;5081855;28;45934;-74
2021/11/03 11:10:41;;;;;;;;;13.25;12.00;;;;;11.07;74.48;99443.44;5080880;28;45596;-77
2021/11/03 11:13:18;;;;;;;;;15.75;14.50;;;;;11.14;74.47;99442.75;5076435;28;45871;-76
2021/11/03 11:16:06;;;;;;;;;17.00;16.75;;;;;11.24;74.30;99442.72;5076925;28;45539;-76
2021/11/03 11:18:53;;;;;;;;;12.75;10.00;;;;;11.26;73.82;99440.78;5076622;28;46433;-74
2021/11/03 11:21:43;;;;;;;;;13.50;13.00;;;;;11.31;74.12;99439.41;5076425;28;45660;-76
2021/11/03 11:27:51;;;;;;;;;15.25;14.25;;;;;11.48;73.59;99450.94;5076533;28;45976;-76
2021/11/03 11:30:19;;;;;;;;;14.75;14.25;;;;;11.58;73.57;99445.66;5076657;28;46248;-77
2021/11/03 11:33:02;;;;;;;;;14.75;13.00;;;;;11.73;72.83;99444.25;5076318;28;45660;-77
2021/11/03 11:35:42;;;;;;;;;13.75;12.75;;;;;11.78;72.68;99449.88;5076724;28;45586;-77
2021/11/03 11:38:34;;;;;;;;;18.50;16.00;;;;;11.84;72.54;99451.94;5076461;28;45604;-79
2021/11/03 11:44:27;;;;;;;;;15.00;13.25;;;;;11.92;71.69;99452.03;5076088;28;45734;-78
2021/11/03 11:46:55;;;;;;;;;12.00;10.00;;;;;12.00;71.30;99469.66;5076068;28;45596;-77
2021/11/03 11:49:34;;;;;;;;;8.00;8.00;;;;;11.95;70.64;99446.50;5076078;28;46378;-75
2021/11/03 11:52:09;;;;;;;;;12.00;9.75;;;;;12.05;70.17;99462.19;5075651;28;46247;-77
2021/11/03 11:54:38;;;;;;;;;10.75;9.25;;;;;12.04;70.36;99450.84;5076110;28;45465;-78
2021/11/03 11:57:13;;;;;;;;;13.00;11.75;;;;;12.13;70.59;99459.66;5076231;28;45670;-76
2021/11/03 12:00:11;;;;;;;;;10.25;9.00;;;;;12.19;69.79;99469.59;5057734;28;46522;-78
2021/11/03 12:02:52;;;;;;;;;7.50;7.25;;;;;12.18;69.29;99467.94;5057556;28;48146;-76
2021/11/03 12:05:20;;;;;;;;;9.00;8.75;;;;;12.15;69.49;99469.03;5076204;28;45768;-77
2021/11/03 12:08:13;;;;;;;;;6.00;6.00;;;;;12.10;69.25;99458.16;5076163;28;45580;-76
2021/11/03 12:10:57;;;;;;;;;9.25;8.00;;;;;12.07;69.27;99458.44;5057357;28;47411;-78
2021/11/03 12:13:32;;;;;;;;;9.25;8.50;;;;;12.08;69.22;99462.72;5075467;28;46014;-77
2021/11/03 12:16:07;;;;;;;;;7.75;7.00;;;;;12.08;68.67;99464.53;5075883;28;45740;-75
2021/11/03 12:18:32;;;;;;;;;8.00;8.00;;;;;12.12;68.91;99471.13;5075729;28;45590;-77
2021/11/03 12:20:58;;;;;;;;;8.50;8.00;;;;;12.16;69.05;99468.06;5075198;28;46515;-77
2021/11/03 12:23:45;;;;;;;;;7.25;7.00;;;;;12.22;68.69;99464.03;5075396;28;47296;-75
2021/11/03 12:26:25;;;;;;;;;7.50;7.50;;;;;12.31;68.78;99473.63;5075394;28;45608;-78
2021/11/03 12:29:00;;;;;;;;;5.25;4.50;;;;;12.34;68.80;99470.72;5075924;28;45885;-77
2021/11/03 12:31:28;;;;;;;;;7.50;7.00;;;;;12.38;68.41;99460.75;5075104;28;47512;-77
2021/11/03 12:34:02;;;;;;;;;7.75;7.75;;;;;12.45;68.68;99460.00;5075680;28;45943;-76
2021/11/03 12:36:28;;;;;;;;;9.50;8.25;;;;;12.50;68.44;99459.56;5075454;28;45628;-78
2021/11/03 12:38:57;;;;;;;;;7.00;5.25;;;;;12.55;68.44;99458.13;5057308;28;45704;-78
2021/11/03 12:41:28;;;;;;;;;7.00;5.25;;;;;12.59;67.92;99461.28;5079205;28;47181;-78
2021/11/03 12:43:59;;;;;;;;;6.00;6.00;;;;;12.70;67.71;99468.09;5081913;28;45683;-77
2021/11/03 12:46:26;;;;;;;;;5.50;5.00;;;;;12.70;67.63;99466.31;5081322;28;45649;-76
2021/11/03 12:49:00;;;;;;;;;8.00;7.25;;;;;12.74;67.42;99466.84;5080924;28;45811;-76
2021/11/03 12:51:37;;;;;;;;;8.00;4.50;;;;;12.71;66.40;99478.47;5075617;28;46766;-76
2021/11/03 12:54:02;;;;;;;;;5.00;5.00;;;;;12.66;66.38;99472.03;5075453;28;46206;-75
2021/11/03 12:56:31;;;;;;;;;6.75;6.25;;;;;12.55;66.31;99473.06;5074963;28;45630;-77
2021/11/03 12:59:01;;;;;;;;;5.75;5.50;;;;;12.52;66.62;99465.50;5075320;28;45510;-78